Time;durP1;ratioP1;P1;durP2;ratioP2;P2;SDS_P1;SDS_P2;PMS_P1;PMS_P2;Temp;Humidity;BMP_temperature;BMP_pressure;BME280_temperature;BME280_humidity;BME280_pressure;Samples;Min_cycle;Max_cycle;Signal;HPM_P1;HPM_P2
2021/01/07 00:00:09;;;;;;;6.50;5.18;;;5.80;99.90;;;6.05;77.68;101400.63;5073430;28;20127;-74
2021/01/07 00:02:43;;;;;;;5.80;5.30;;;5.80;99.90;;;5.95;77.49;101367.16;5073708;28;20123;-74
2021/01/07 00:05:12;;;;;;;5.63;5.10;;;5.90;99.90;;;6.22;76.90;101396.63;5072034;28;20496;-74
2021/01/07 00:07:40;;;;;;;5.93;5.33;;;6.00;99.90;;;6.09;77.22;101386.72;5072924;28;20040;-74
2021/01/07 00:10:09;;;;;;;5.20;4.80;;;6.00;99.90;;;6.10;77.36;101366.56;5073258;28;20103;-74
2021/01/07 00:12:39;;;;;;;6.67;5.33;;;6.00;99.90;;;6.26;77.06;101376.56;5071840;28;20163;-74
2021/01/07 00:15:08;;;;;;;5.72;5.32;;;6.10;99.90;;;6.35;76.77;101371.47;5072799;28;20555;-75
2021/01/07 00:17:37;;;;;;;5.70;5.20;;;6.20;99.90;;;6.42;76.56;101377.75;5073162;28;20033;-74
2021/01/07 00:20:10;;;;;;;6.17;5.77;;;6.20;99.90;;;6.44;76.39;101373.44;5088627;28;20048;-74
2021/01/07 00:22:38;;;;;;;7.20;5.67;;;6.30;99.90;;;6.06;76.41;101328.88;5072788;28;20049;-74
2021/01/07 00:25:08;;;;;;;6.80;6.17;;;6.20;99.90;;;6.34;76.75;101373.25;5072974;28;20048;-74
2021/01/07 00:27:36;;;;;;;7.37;6.67;;;6.20;99.90;;;5.99;78.17;101373.34;5072806;28;20060;-74
2021/01/07 00:30:06;;;;;;;7.03;6.37;;;5.80;99.90;;;6.07;78.17;101369.16;5072618;28;20044;-74
2021/01/07 00:32:34;;;;;;;6.72;5.90;;;5.90;99.90;;;6.12;78.17;101373.63;5071383;28;20056;-74
2021/01/07 00:35:03;;;;;;;7.10;5.97;;;5.90;99.90;;;6.04;77.93;101364.72;5072840;28;20056;-74
2021/01/07 00:37:32;;;;;;;7.28;5.95;;;5.90;99.90;;;5.98;77.73;101368.97;5072970;28;20106;-74
2021/01/07 00:39:59;;;;;;;5.73;5.27;;;5.90;99.90;;;5.90;77.74;101360.91;5072504;28;20044;-74
2021/01/07 00:42:26;;;;;;;7.93;5.70;;;5.80;99.90;;;6.03;78.03;101365.56;5072382;28;20075;-74
2021/01/07 00:44:55;;;;;;;6.63;6.00;;;5.90;99.90;;;6.02;77.93;101358.53;5072737;28;20040;-74
2021/01/07 00:47:23;;;;;;;5.23;4.73;;;5.90;99.90;;;5.69;77.69;101309.66;5072762;28;20037;-74
2021/01/07 00:49:53;;;;;;;5.57;4.80;;;5.90;99.90;;;5.89;77.86;101350.34;5072968;28;20044;-73
2021/01/07 00:52:20;;;;;;;5.43;4.95;;;5.80;99.90;;;5.78;78.54;101357.97;5073015;28;20048;-73
2021/01/07 00:54:49;;;;;;;5.87;5.40;;;5.70;99.90;;;5.62;78.88;101328.72;5071264;28;20040;-74
2021/01/07 00:57:21;;;;;;;5.87;5.30;;;5.60;99.90;;;5.66;78.87;101336.69;5071318;28;20455;-74
2021/01/07 00:59:49;;;;;;;5.53;5.13;;;5.60;99.90;;;5.79;79.05;101362.34;5072469;28;20056;-74
2021/01/07 01:02:19;;;;;;;5.47;4.63;;;5.60;99.90;;;5.78;79.03;101363.22;5070607;28;20048;-74
2021/01/07 01:04:46;;;;;;;5.35;4.82;;;5.60;99.90;;;5.78;78.97;101357.97;5071188;28;20473;-74
2021/01/07 01:07:16;;;;;;;5.10;4.80;;;5.60;99.90;;;3.35;78.72;100919.03;5072490;28;20054;-74
2021/01/07 01:09:44;;;;;;;6.20;5.60;;;5.60;99.90;;;5.73;78.91;101333.34;5087515;28;20466;-74
2021/01/07 01:12:12;;;;;;;6.07;5.00;;;5.70;99.90;;;5.72;79.08;101336.84;5071035;28;20048;-74
2021/01/07 01:14:40;;;;;;;5.57;4.70;;;5.70;99.90;;;5.58;79.48;101353.09;5072128;28;20060;-74
2021/01/07 01:17:08;;;;;;;6.37;5.87;;;5.50;99.90;;;5.55;79.68;101346.06;5072583;28;20040;-74
2021/01/07 01:19:35;;;;;;;5.63;5.03;;;5.50;99.90;;;5.57;79.55;101340.84;5071969;28;20067;-74
2021/01/07 01:22:02;;;;;;;5.53;5.13;;;5.50;99.90;;;5.38;79.75;101329.06;5072237;28;20098;-74
2021/01/07 01:24:30;;;;;;;5.70;5.20;;;5.40;99.90;;;5.32;79.99;101318.41;5071909;28;20094;-74
2021/01/07 01:26:59;;;;;;;5.20;4.87;;;5.40;99.90;;;5.27;80.79;101352.38;5071789;28;20492;-74
2021/01/07 01:29:27;;;;;;;6.77;5.67;;;5.20;99.90;;;5.30;80.97;101341.09;5071978;28;20390;-74
2021/01/07 01:31:55;;;;;;;6.13;5.53;;;5.20;99.90;;;5.39;80.77;101349.16;5071681;28;20052;-74
2021/01/07 01:34:24;;;;;;;6.53;5.93;;;5.20;99.90;;;5.43;80.96;101346.66;5071816;28;20040;-74
2021/01/07 01:36:52;;;;;;;6.33;5.83;;;5.20;99.90;;;5.66;80.64;101362.03;5070695;28;20074;-74
2021/01/07 01:39:19;;;;;;;6.57;5.97;;;5.50;99.90;;;5.76;80.31;101353.53;5071786;28;20036;-73
2021/01/07 01:41:49;;;;;;;8.13;6.70;;;5.60;99.90;;;5.67;80.36;101348.94;5072316;28;20040;-74
2021/01/07 01:44:18;;;;;;;7.38;6.38;;;5.60;99.90;;;5.64;80.50;101342.75;5070789;28;20056;-74
2021/01/07 01:46:47;;;;;;;8.87;6.90;;;5.60;99.90;;;5.72;80.34;101347.34;5072010;28;20043;-74
2021/01/07 01:49:15;;;;;;;7.30;6.70;;;5.60;99.90;;;5.55;80.55;101322.47;5071998;28;20101;-74
2021/01/07 01:51:43;;;;;;;7.10;6.50;;;5.60;99.90;;;5.50;81.03;101313.56;5071899;28;20389;-74
2021/01/07 01:54:10;;;;;;;8.37;6.17;;;5.50;99.90;;;5.12;80.49;101234.03;5071637;28;20041;-74
2021/01/07 01:56:40;;;;;;;6.53;5.70;;;5.60;99.90;;;5.50;80.78;101288.25;5070391;28;20033;-74
2021/01/07 01:59:08;;;;;;;6.90;5.47;;;5.60;99.90;;;5.88;80.70;101343.34;5071569;28;20114;-74
2021/01/07 02:01:35;;;;;;;8.10;6.10;;;5.60;99.90;;;5.86;80.52;101345.06;5071587;28;20186;-74
2021/01/07 02:04:05;;;;;;;6.37;5.43;;;5.60;99.90;;;5.89;80.28;101339.84;5071850;28;20033;-75
2021/01/07 02:06:36;;;;;;;6.87;5.53;;;5.70;99.90;;;5.81;80.55;101338.75;5071460;28;20444;-74
2021/01/07 02:09:07;;;;;;;5.73;5.20;;;5.60;99.90;;;5.76;80.61;101337.78;5071583;28;20067;-74
2021/01/07 02:11:35;;;;;;;5.70;5.20;;;5.60;99.90;;;5.65;80.34;101328.81;5070225;28;20056;-74
2021/01/07 02:14:03;;;;;;;5.77;5.37;;;5.50;99.90;;;5.65;81.04;101340.19;5074240;28;20435;-74
2021/01/07 02:16:30;;;;;;;5.90;4.90;;;5.50;99.90;;;5.50;80.32;101279.47;5075364;28;20032;-74
2021/01/07 02:18:58;;;;;;;5.80;5.27;;;5.60;99.90;;;5.89;80.10;101327.63;5074062;28;20478;-74
2021/01/07 02:21:26;;;;;;;5.93;5.43;;;5.60;99.90;;;6.03;79.94;101328.81;5075384;28;20102;-74
2021/01/07 02:23:55;;;;;;;5.47;5.00;;;5.80;99.90;;;5.99;79.30;101302.47;5075273;28;20068;-74
2021/01/07 02:26:23;;;;;;;4.93;4.43;;;5.90;99.90;;;6.09;79.35;101330.69;5075053;28;20045;-74
2021/01/07 02:28:54;;;;;;;7.27;5.03;;;5.90;99.90;;;6.17;79.30;101332.63;5074945;28;20044;-74
2021/01/07 02:31:21;;;;;;;5.65;5.30;;;5.90;99.90;;;6.19;78.90;101330.88;5075201;28;20059;-74
2021/01/07 02:33:49;;;;;;;5.30;4.60;;;6.00;99.90;;;6.01;78.97;101303.38;5075136;28;20090;-74
2021/01/07 02:36:16;;;;;;;5.60;5.13;;;5.90;99.90;;;6.03;78.98;101315.69;5075131;28;20119;-74
2021/01/07 02:38:49;;;;;;;5.33;4.90;;;5.90;99.90;;;5.98;79.02;101303.31;5074928;28;20059;-74
2021/01/07 02:41:17;;;;;;;5.20;4.70;;;5.90;99.90;;;5.78;79.20;101288.84;5074810;28;20038;-74
2021/01/07 02:43:47;;;;;;;4.83;4.47;;;5.80;99.90;;;5.99;79.86;101320.84;5075028;28;20150;-74
2021/01/07 02:46:15;;;;;;;4.80;4.38;;;5.80;99.90;;;5.91;79.68;101325.91;5075203;28;20052;-74
2021/01/07 02:48:42;;;;;;;4.63;4.23;;;5.70;99.90;;;5.89;79.59;101322.38;5074891;28;20060;-75
2021/01/07 02:51:10;;;;;;;5.33;4.83;;;5.70;99.90;;;5.81;80.05;101316.03;5074793;28;20044;-74
2021/01/07 02:53:37;;;;;;;5.17;4.77;;;5.60;99.90;;;5.91;80.13;101323.28;5074434;28;20115;-74
2021/01/07 02:56:06;;;;;;;6.23;5.27;;;5.70;99.90;;;5.95;80.15;101319.00;5074500;28;20114;-74
2021/01/07 02:58:38;;;;;;;5.33;4.80;;;5.60;99.90;;;5.93;80.03;101308.47;5074562;28;20032;-74
2021/01/07 03:01:06;;;;;;;6.27;4.07;;;5.70;99.90;;;4.24;79.93;101013.66;5074710;28;20056;-74
2021/01/07 03:03:33;;;;;;;5.30;4.80;;;5.80;99.90;;;5.90;79.99;101312.78;5074847;28;20036;-75
2021/01/07 03:06:04;;;;;;;5.03;4.63;;;5.80;99.90;;;5.93;80.09;101307.56;5074212;28;20075;-74
2021/01/07 03:08:31;;;;;;;5.80;5.30;;;5.70;99.90;;;5.83;80.29;101274.06;5074546;28;20048;-74
2021/01/07 03:10:58;;;;;;;5.43;4.90;;;5.80;99.90;;;5.97;80.25;101286.69;5074213;28;20040;-74
2021/01/07 03:13:28;;;;;;;4.83;4.43;;;5.80;99.90;;;6.08;80.20;101303.53;5074121;28;20041;-74
2021/01/07 03:15:56;;;;;;;6.85;4.95;;;5.90;99.90;;;5.91;80.08;101286.53;5074088;28;20045;-74
2021/01/07 03:18:25;;;;;;;5.15;4.68;;;5.80;99.90;;;6.06;80.41;101296.47;5074303;28;20040;-74
2021/01/07 03:20:53;;;;;;;5.70;5.20;;;5.80;99.90;;;5.86;80.50;101297.81;5074237;28;20097;-74
2021/01/07 03:23:23;;;;;;;5.70;4.83;;;5.70;99.90;;;6.05;80.58;101294.72;5073944;28;20412;-75
2021/01/07 03:25:55;;;;;;;4.97;4.37;;;5.80;99.90;;;5.98;80.69;101291.06;5072369;28;20444;-74
2021/01/07 03:28:23;;;;;;;4.83;4.20;;;5.80;99.90;;;6.02;80.60;101290.28;5074145;28;20055;-74
2021/01/07 03:30:51;;;;;;;5.43;5.03;;;5.80;99.90;;;3.55;80.29;100836.75;5073809;28;20032;-74
2021/01/07 03:33:21;;;;;;;4.83;4.50;;;5.90;99.90;;;6.04;80.37;101271.94;5073724;28;20393;-74
2021/01/07 03:35:49;;;;;;;4.95;4.40;;;6.00;99.90;;;6.32;79.47;101290.91;5073849;28;20513;-74
2021/01/07 03:38:16;;;;;;;5.30;4.90;;;6.10;99.90;;;6.30;79.87;101292.59;5072645;28;20052;-74
2021/01/07 03:40:44;;;;;;;4.83;4.53;;;6.20;99.90;;;6.32;79.28;101293.53;5073919;28;20040;-74
2021/01/07 03:43:12;;;;;;;6.90;4.93;;;6.20;99.90;;;6.09;79.88;101286.03;5074119;28;20094;-74
2021/01/07 03:45:39;;;;;;;5.33;4.67;;;6.00;99.90;;;5.74;80.76;101260.75;5072500;28;20055;-74
2021/01/07 03:48:08;;;;;;;5.33;4.83;;;5.80;99.90;;;5.87;80.99;101279.47;5073430;28;20067;-74
2021/01/07 03:50:38;;;;;;;5.17;4.60;;;5.70;99.90;;;5.82;80.44;101283.72;5074096;28;20093;-74
2021/01/07 03:53:06;;;;;;;4.40;4.10;;;5.80;99.90;;;5.95;80.47;101277.00;5072312;28;20538;-74
2021/01/07 03:55:34;;;;;;;5.17;4.40;;;5.80;99.90;;;5.85;81.03;101281.16;5073587;28;20123;-74
2021/01/07 03:58:02;;;;;;;5.40;4.53;;;5.70;99.90;;;5.66;80.66;101246.59;5073705;28;20043;-74
2021/01/07 04:00:29;;;;;;;4.70;4.40;;;5.70;99.90;;;5.91;80.57;101283.91;5073391;28;20056;-74
2021/01/07 04:02:57;;;;;;;4.73;4.43;;;5.70;99.90;;;5.99;80.65;101282.34;5073146;28;20119;-74
2021/01/07 04:05:25;;;;;;;5.60;5.13;;;5.80;99.90;;;5.95;80.43;101248.13;5073322;28;20444;-74
2021/01/07 04:07:52;;;;;;;5.00;4.60;;;6.00;99.90;;;5.61;79.93;101159.03;5073232;28;20131;-74
2021/01/07 04:10:20;;;;;;;5.17;4.77;;;6.10;99.90;;;6.23;79.75;101279.34;5073044;28;20045;-74
2021/01/07 04:12:47;;;;;;;4.73;4.47;;;6.00;99.90;;;6.11;79.97;101269.47;5073212;28;20048;-74
2021/01/07 04:15:15;;;;;;;5.07;4.67;;;6.00;99.90;;;6.10;79.88;101251.94;5073252;28;20052;-74
2021/01/07 04:17:42;;;;;;;5.10;4.60;;;6.00;99.90;;;6.20;79.69;101279.25;5071802;28;20044;-74
2021/01/07 04:20:10;;;;;;;4.80;4.50;;;6.00;99.90;;;6.25;79.74;101296.88;5073072;28;20094;-74
2021/01/07 04:22:45;;;;;;;7.97;5.20;;;6.10;99.90;;;6.12;79.17;101260.72;5072772;28;20429;-74
2021/01/07 04:25:13;;;;;;;4.90;4.50;;;6.10;99.90;;;6.24;79.70;101273.22;5073087;28;20051;-74
2021/01/07 04:27:40;;;;;;;4.87;4.37;;;6.00;99.90;;;6.32;79.46;101271.63;5072565;28;20444;-73
2021/01/07 04:30:09;;;;;;;5.20;4.70;;;6.10;99.90;;;6.18;79.53;101252.97;5072624;28;20056;-74
2021/01/07 04:32:36;;;;;;;7.23;4.87;;;6.00;99.90;;;6.26;79.48;101272.41;5071508;28;20543;-74
2021/01/07 04:35:06;;;;;;;4.87;4.47;;;6.00;99.90;;;6.19;79.47;101252.09;5072813;28;20123;-74
2021/01/07 04:37:34;;;;;;;4.93;4.53;;;6.00;99.90;;;6.30;79.61;101265.44;5071656;28;20040;-74
2021/01/07 04:40:04;;;;;;;5.33;5.03;;;6.10;99.90;;;6.31;79.80;101267.19;5071446;28;20052;-74
2021/01/07 04:42:32;;;;;;;5.33;4.53;;;6.10;99.90;;;6.29;79.18;101259.31;5088459;28;20048;-73
2021/01/07 04:45:01;;;;;;;4.27;3.97;;;6.20;99.90;;;6.44;79.36;101255.19;5072631;28;20067;-74
2021/01/07 04:47:29;;;;;;;6.27;4.80;;;6.20;99.90;;;6.39;79.30;101256.00;5071308;28;20078;-74
2021/01/07 04:49:58;;;;;;;4.70;4.27;;;6.20;99.90;;;6.32;79.74;101264.63;5072610;28;20086;-74
2021/01/07 04:52:26;;;;;;;5.30;4.83;;;6.10;99.90;;;6.26;79.74;101263.63;5072616;28;20037;-74
2021/01/07 04:54:54;;;;;;;6.27;4.90;;;6.10;99.90;;;6.16;79.86;101254.69;5072792;28;20050;-74
2021/01/07 04:57:23;;;;;;;6.50;4.43;;;6.10;99.90;;;6.07;80.27;101256.25;5070989;28;20044;-74
2021/01/07 04:59:50;;;;;;;5.43;4.90;;;6.00;99.90;;;6.34;80.17;101264.66;5072356;28;20074;-74
2021/01/07 05:02:18;;;;;;;4.80;4.37;;;6.10;99.90;;;5.80;79.84;101162.06;5072416;28;20101;-74
2021/01/07 05:04:49;;;;;;;4.90;4.47;;;6.20;99.90;;;6.34;79.82;101251.53;5072225;28;20037;-72
2021/01/07 05:07:17;;;;;;;4.90;4.47;;;6.30;99.90;;;6.47;79.99;101255.25;5072108;28;20078;-76
2021/01/07 05:09:46;;;;;;;4.10;3.80;;;6.30;99.90;;;5.81;79.69;101126.19;5072182;28;20072;-74
2021/01/07 05:12:14;;;;;;;5.00;4.60;;;6.40;99.90;;;6.52;79.91;101245.72;5072158;28;20148;-74
2021/01/07 05:14:49;;;;;;;9.50;4.73;;;6.40;99.90;;;6.21;80.24;101220.63;5072312;28;20098;-73
2021/01/07 05:17:18;;;;;;;4.53;4.13;;;6.30;99.90;;;6.46;79.91;101243.88;5070664;28;20067;-75
2021/01/07 05:19:46;;;;;;;4.87;4.57;;;6.40;99.90;;;6.20;80.47;101245.13;5071922;28;20044;-75
2021/01/07 05:22:14;;;;;;;6.80;4.40;;;6.20;99.90;;;6.44;80.32;101232.44;5072363;28;20091;-74
2021/01/07 05:24:43;;;;;;;5.47;4.97;;;6.40;99.90;;;6.53;80.16;101250.09;5070913;28;20139;-74
2021/01/07 05:27:15;;;;;;;3.87;3.57;;;6.40;99.90;;;6.59;79.99;101239.69;5071958;28;20386;-75
2021/01/07 05:29:43;;;;;;;5.33;4.53;;;6.50;99.90;;;6.62;79.70;101235.38;5072266;28;20048;-75
2021/01/07 05:32:12;;;;;;;7.13;4.47;;;6.50;99.90;;;6.63;79.84;101234.53;5072438;28;20039;-75
2021/01/07 05:34:47;;;;;;;4.60;4.30;;;6.50;99.90;;;6.64;79.41;101238.91;5072116;28;20134;-76
2021/01/07 05:37:19;;;;;;;4.80;4.40;;;6.50;99.90;;;6.48;79.38;101223.75;5070860;28;20106;-76
2021/01/07 05:39:49;;;;;;;4.67;4.23;;;6.40;99.90;;;6.53;79.48;101232.59;5072054;28;20044;-75
2021/01/07 05:42:17;;;;;;;5.90;4.80;;;6.40;99.90;;;6.26;80.05;101222.50;5072108;28;20044;-75
2021/01/07 05:44:48;;;;;;;4.83;4.33;;;6.20;99.90;;;6.18;80.05;101234.59;5072032;28;20064;-73
2021/01/07 05:47:27;;;;;;;4.95;4.57;;;6.00;99.90;;;6.31;80.03;101226.06;5072081;28;20040;-77
2021/01/07 05:49:56;;;;;;;5.60;5.07;;;6.20;99.90;;;6.12;79.92;101238.81;5074808;28;20417;-75
2021/01/07 05:52:29;;;;;;;5.67;4.03;;;6.10;99.90;;;6.26;80.51;101240.88;5075574;28;20036;-75
2021/01/07 05:54:58;;;;;;;4.90;4.27;;;6.10;99.90;;;6.35;80.44;101232.25;5075900;28;20040;-75
2021/01/07 05:57:26;;;;;;;4.90;4.43;;;6.20;99.90;;;6.42;79.92;101234.16;5075683;28;20090;-76
2021/01/07 05:59:56;;;;;;;7.00;5.00;;;6.20;99.90;;;6.13;80.31;101214.34;5074136;28;20076;-75
2021/01/07 06:02:24;;;;;;;4.97;4.45;;;6.10;99.90;;;6.45;80.27;101236.81;5075644;28;20094;-75
2021/01/07 06:04:53;;;;;;;4.67;4.23;;;6.30;99.90;;;6.54;80.08;101233.50;5075614;28;20070;-76
2021/01/07 06:07:20;;;;;;;6.13;4.67;;;6.30;99.90;;;6.46;79.81;101227.22;5075275;28;20040;-75
2021/01/07 06:09:50;;;;;;;8.75;4.40;;;6.40;99.90;;;6.58;79.99;101235.31;5075306;28;20389;-75
2021/01/07 06:12:18;;;;;;;6.83;4.60;;;6.40;99.90;;;6.59;79.80;101234.44;5076069;28;20123;-76
2021/01/07 06:14:46;;;;;;;5.33;4.03;;;6.40;99.90;;;6.52;79.60;101232.59;5075200;28;20040;-75
2021/01/07 06:17:14;;;;;;;4.90;4.27;;;6.40;99.90;;;6.65;79.24;101232.81;5075461;28;20044;-75
2021/01/07 06:19:44;;;;;;;6.73;4.17;;;6.50;99.90;;;6.46;79.26;101219.34;5075105;28;20090;-75
2021/01/07 06:22:15;;;;;;;5.70;4.65;;;6.40;99.90;;;6.59;79.20;101224.81;5074012;28;20055;-75
2021/01/07 06:24:45;;;;;;;7.30;4.90;;;6.60;99.90;;;5.79;78.80;101097.28;5075049;28;20063;-75
2021/01/07 06:27:22;;;;;;;6.53;4.65;;;6.60;99.90;;;6.26;79.45;101211.09;5075182;28;20090;-75
2021/01/07 06:29:50;;;;;;;4.87;4.47;;;6.40;99.90;;;6.04;79.88;101180.06;5075244;28;20405;-75
2021/01/07 06:32:18;;;;;;;6.57;4.97;;;6.20;99.90;;;6.18;80.54;101238.94;5075012;28;20098;-75
2021/01/07 06:34:48;;;;;;;7.03;5.10;;;6.10;99.90;;;5.76;81.40;101206.56;5074949;28;20063;-75
2021/01/07 06:37:31;;;;;;;6.30;5.07;;;5.90;99.90;;;6.08;81.55;101235.25;5074964;28;20049;-75
2021/01/07 06:39:59;;;;;;;9.60;5.13;;;6.00;99.90;;;6.00;81.78;101233.34;5073818;28;20052;-76
2021/01/07 06:42:28;;;;;;;8.13;5.03;;;5.90;99.90;;;6.15;81.57;101231.91;5073716;28;20489;-75
2021/01/07 06:44:58;;;;;;;10.80;5.37;;;6.10;99.90;;;6.20;81.20;101234.59;5074953;28;20052;-75
2021/01/07 06:47:25;;;;;;;7.30;5.20;;;6.10;99.90;;;6.14;81.48;101230.13;5074808;28;20436;-75
2021/01/07 06:49:54;;;;;;;5.33;4.73;;;6.10;99.90;;;6.20;81.18;101229.34;5074876;28;20283;-76
2021/01/07 06:52:23;;;;;;;5.37;4.37;;;6.10;99.90;;;6.26;80.87;101240.88;5074849;28;20385;-74
2021/01/07 06:54:54;;;;;;;10.43;5.00;;;6.20;99.90;;;6.37;80.82;101249.81;5074828;28;20044;-75
2021/01/07 06:57:22;;;;;;;11.70;5.97;;;6.30;99.90;;;6.43;80.62;101250.81;5074888;28;20048;-74
2021/01/07 06:59:58;;;;;;;6.03;4.90;;;6.40;99.90;;;6.29;80.66;101254.06;5073548;28;20057;-75
2021/01/07 07:02:27;;;;;;;8.03;4.90;;;6.30;99.90;;;6.38;80.35;101245.47;5074467;28;20131;-75
2021/01/07 07:05:06;;;;;;;6.87;4.57;;;6.30;99.90;;;6.21;80.19;101233.78;5074566;28;20033;-75
2021/01/07 07:08:07;;;;;;;6.37;5.20;;;6.30;99.90;;;6.16;79.61;101215.28;5074544;28;20079;-75
2021/01/07 07:10:58;;;;;;;4.93;4.53;;;6.30;99.90;;;6.36;79.66;101244.56;5074339;28;20477;-75
2021/01/07 07:13:26;;;;;;;;;;;6.30;99.90;;;6.26;79.33;101219.88;5073581;28;20469;-75
2021/01/07 07:15:54;;;;;;;6.77;4.90;;;6.30;99.90;;;6.18;79.39;101229.34;5074302;28;19994;-76
2021/01/07 07:18:26;;;;;;;10.70;5.23;;;6.30;99.90;;;6.23;79.53;101219.78;5074139;28;20063;-76
2021/01/07 07:20:54;;;;;;;6.93;4.80;;;6.30;99.90;;;6.43;79.31;101251.69;5074386;28;20048;-74
2021/01/07 07:23:42;;;;;;;9.47;5.23;;;6.30;99.90;;;6.44;79.44;101242.06;5074352;28;20090;-76
2021/01/07 07:26:13;;;;;;;5.93;5.30;;;6.30;99.90;;;6.46;79.23;101250.88;5073991;28;20037;-75
2021/01/07 07:28:45;;;;;;;9.80;5.13;;;6.40;99.90;;;6.38;78.82;101243.75;5073925;28;20029;-75
2021/01/07 07:31:14;;;;;;;4.67;4.27;;;6.40;99.90;;;6.22;79.15;101239.03;5073812;28;20390;-75
2021/01/07 07:33:42;;;;;;;4.93;4.53;;;6.30;99.90;;;6.31;78.62;101252.34;5073930;28;20086;-76
2021/01/07 07:36:11;;;;;;;8.77;4.87;;;6.30;99.90;;;6.07;78.80;101248.38;5074029;28;20131;-75
2021/01/07 07:38:41;;;;;;;8.83;4.93;;;6.10;99.90;;;6.11;78.83;101253.72;5073659;28;20432;-76
2021/01/07 07:41:11;;;;;;;7.40;5.10;;;6.10;99.90;;;6.03;78.81;101259.66;5073900;28;20093;-76
2021/01/07 07:43:40;;;;;;;6.78;4.53;;;6.00;99.90;;;6.04;78.95;101269.31;5073959;28;20040;-75
2021/01/07 07:46:08;;;;;;;6.43;5.37;;;6.00;99.90;;;5.99;79.02;101260.44;5073801;28;20086;-76
2021/01/07 07:48:39;;;;;;;8.73;5.50;;;6.00;99.90;;;6.01;78.86;101262.25;5073694;28;20062;-77
2021/01/07 07:51:10;;;;;;;5.23;4.77;;;6.00;99.90;;;6.08;78.66;101272.03;5072352;28;20072;-77
2021/01/07 07:53:39;;;;;;;5.63;5.07;;;6.00;99.90;;;6.07;78.36;101270.25;5073685;28;20044;-77
2021/01/07 07:56:21;;;;;;;7.47;5.10;;;6.10;99.90;;;6.04;78.61;101277.19;5073577;28;20359;-77
2021/01/07 07:58:57;;;;;;;6.93;5.17;;;6.00;99.90;;;5.92;78.69;101256.81;5073207;28;20502;-77
2021/01/07 08:01:35;;;;;;;6.77;5.37;;;6.00;99.90;;;6.09;78.50;101291.28;5073521;28;20044;-77
2021/01/07 08:04:03;;;;;;;6.23;5.17;;;6.00;99.90;;;5.96;77.97;101244.66;5073226;28;20037;-77
2021/01/07 08:06:36;;;;;;;6.07;5.43;;;6.10;99.90;;;6.16;77.89;101267.81;5073166;28;20088;-77
2021/01/07 08:09:06;;;;;;;7.73;5.47;;;6.10;99.90;;;6.15;78.23;101270.41;5072976;28;20032;-77
2021/01/07 08:11:42;;;;;;;7.57;5.37;;;6.10;99.90;;;6.15;78.39;101268.69;5072857;28;20049;-78
2021/01/07 08:14:17;;;;;;;6.83;5.50;;;6.10;99.90;;;6.11;78.56;101252.81;5071982;28;20100;-78
2021/01/07 08:16:44;;;;;;;8.03;5.30;;;6.10;99.90;;;3.53;78.19;100821.03;5073004;28;20043;-78
2021/01/07 08:19:21;;;;;;;10.77;5.80;;;6.00;99.90;;;5.75;78.52;101241.56;5071827;28;20055;-76
2021/01/07 08:21:52;;;;;;;10.23;4.93;;;6.00;99.90;;;5.78;80.06;101292.38;5073120;28;20391;-78
2021/01/07 08:24:25;;;;;;;6.78;5.32;;;5.70;99.90;;;5.09;80.98;101282.91;5073465;28;20123;-77
2021/01/07 08:27:11;;;;;;;9.37;6.27;;;5.20;99.90;;;4.90;82.14;101280.63;5071387;28;20048;-77
2021/01/07 08:29:41;;;;;;;7.30;5.50;;;5.00;99.90;;;4.70;83.34;101281.91;5072938;28;20048;-76
2021/01/07 08:32:17;;;;;;;6.30;5.70;;;4.70;99.90;;;4.53;83.88;101250.91;5072775;28;20444;-77
2021/01/07 08:34:46;;;;;;;9.13;5.80;;;4.70;99.90;;;4.81;83.92;101304.00;5071596;28;20040;-77
2021/01/07 08:37:19;;;;;;;10.10;5.73;;;4.70;99.90;;;4.67;84.35;101294.91;5072886;28;20531;-77
2021/01/07 08:39:47;;;;;;;13.67;6.43;;;4.80;99.90;;;4.38;84.15;101182.44;5088358;28;20291;-77
2021/01/07 08:42:14;;;;;;;7.00;5.50;;;4.80;99.90;;;5.12;83.83;101282.94;5072522;28;20040;-76
2021/01/07 08:44:44;;;;;;;9.50;6.20;;;5.00;99.90;;;5.32;83.58;101279.06;5071444;28;20489;-77
2021/01/07 08:47:23;;;;;;;6.55;5.78;;;5.20;99.90;;;5.26;83.72;101273.69;5072720;28;20036;-77
2021/01/07 08:50:10;;;;;;;8.40;5.80;;;5.20;99.90;;;5.38;83.59;101277.47;5072317;28;20032;-76
2021/01/07 08:52:51;;;;;;;9.97;5.90;;;5.20;99.90;;;5.57;83.19;101268.28;5072389;28;20040;-76
2021/01/07 08:55:19;;;;;;;9.13;6.20;;;5.40;99.90;;;5.69;82.76;101268.53;5072651;28;20044;-77
2021/01/07 08:57:47;;;;;;;11.73;7.00;;;5.50;99.90;;;5.62;82.51;101235.16;5072576;28;20040;-77
2021/01/07 09:00:20;;;;;;;11.33;6.83;;;5.60;99.90;;;5.95;82.26;101263.88;5072300;28;20486;-77
2021/01/07 09:03:01;;;;;;;10.57;6.00;;;5.80;99.90;;;5.96;81.53;101263.03;5072803;28;20481;-76
2021/01/07 09:05:29;;;;;;;12.27;6.13;;;5.80;99.90;;;6.18;81.44;101271.34;5071026;28;20133;-76
2021/01/07 09:08:06;;;;;;;10.53;6.07;;;6.00;99.90;;;6.11;81.14;101274.72;5072351;28;20040;-76
2021/01/07 09:10:34;;;;;;;11.23;5.97;;;6.00;99.90;;;6.21;81.25;101270.53;5072466;28;20080;-77
2021/01/07 09:13:19;;;;;;;10.90;6.47;;;6.00;99.90;;;6.40;81.05;101275.28;5072330;28;20498;-77
2021/01/07 09:15:47;;;;;;;10.20;6.00;;;6.20;99.90;;;6.37;80.52;101246.31;5072371;28;20055;-76
2021/01/07 09:18:19;;;;;;;16.33;6.30;;;6.30;99.90;;;5.02;80.03;101018.84;5071883;28;20044;-76
2021/01/07 09:20:48;;;;;;;10.67;6.40;;;6.40;99.90;;;6.44;80.56;101255.19;5072129;28;20065;-75
2021/01/07 09:23:16;;;;;;;11.73;6.93;;;6.40;99.90;;;6.59;80.26;101277.38;5070401;28;20498;-76
2021/01/07 09:25:44;;;;;;;11.87;6.60;;;6.40;99.90;;;6.67;79.89;101281.03;5071971;28;20040;-76
2021/01/07 09:28:12;;;;;;;15.57;6.10;;;6.50;99.90;;;4.18;78.93;100859.09;5072336;28;20343;-76
2021/01/07 09:30:40;;;;;;;10.73;6.13;;;6.50;99.90;;;6.85;79.18;101283.09;5072231;28;20044;-76
2021/01/07 09:33:07;;;;;;;17.73;8.30;;;6.70;99.90;;;6.84;78.50;101281.31;5072101;28;20071;-76
2021/01/07 09:35:35;;;;;;;15.60;6.70;;;6.80;99.90;;;6.89;77.76;101284.94;5070617;28;20044;-76
2021/01/07 09:38:03;;;;;;;15.93;6.73;;;6.90;99.90;;;6.85;77.83;101281.34;5070914;28;20051;-76
2021/01/07 09:40:31;;;;;;;11.57;6.33;;;6.80;99.90;;;6.90;77.75;101287.59;5071795;28;20043;-76
2021/01/07 09:42:59;;;;;;;14.07;5.50;;;6.90;99.90;;;7.01;77.49;101286.00;5071716;28;20028;-76
2021/01/07 09:45:26;;;;;;;12.33;6.27;;;7.00;99.90;;;6.93;77.24;101287.63;5071609;28;20060;-76
2021/01/07 09:47:54;;;;;;;13.43;6.07;;;6.90;99.90;;;6.82;77.22;101265.53;5071912;28;20094;-76
2021/01/07 09:50:22;;;;;;;11.33;5.97;;;6.90;99.90;;;6.73;77.51;101282.88;5071541;28;20037;-76
2021/01/07 09:52:49;;;;;;;13.83;5.77;;;6.80;99.90;;;6.42;78.14;101264.78;5071663;28;20041;-76
2021/01/07 09:55:17;;;;;;;15.37;5.90;;;6.60;99.90;;;6.69;77.91;101283.69;5087030;28;20055;-76
2021/01/07 09:57:48;;;;;;;24.23;6.70;;;6.70;99.90;;;6.86;77.81;101284.88;5071997;28;20066;-76
2021/01/07 10:00:18;;;;;;;12.97;6.50;;;6.80;99.90;;;6.91;77.60;101289.34;5070286;28;20075;-77
2021/01/07 10:02:45;;;;;;;17.57;6.33;;;6.90;99.90;;;6.94;77.16;101288.50;5072179;28;20385;-76
2021/01/07 10:05:13;;;;;;;10.33;5.17;;;6.90;99.90;;;6.82;77.65;101293.56;5071894;28;20034;-77
2021/01/07 10:07:41;;;;;;;15.33;5.20;;;6.80;99.90;;;7.02;77.45;101292.16;5071475;28;20090;-77
2021/01/07 10:10:11;;;;;;;14.70;5.93;;;7.00;99.90;;;6.86;77.54;101291.00;5071543;28;20072;-77
2021/01/07 10:12:38;;;;;;;11.13;5.83;;;6.90;99.90;;;6.80;77.34;101253.22;5072124;28;20492;-77
2021/01/07 10:15:09;;;;;;;14.90;5.53;;;7.00;99.90;;;7.06;76.27;101286.09;5071801;28;20381;-76
2021/01/07 10:17:36;;;;;;;14.88;5.88;;;7.10;99.90;;;7.03;75.76;101283.41;5071897;28;20040;-76
2021/01/07 10:20:12;;;;;;;12.67;5.80;;;7.10;99.90;;;6.93;75.61;101285.00;5071803;28;20032;-77
2021/01/07 10:22:39;;;;;;;11.27;5.67;;;6.90;99.90;;;6.90;75.49;101282.31;5071411;28;20033;-77
2021/01/07 10:25:12;;;;;;;11.70;6.27;;;6.90;99.90;;;6.93;75.94;101273.59;5071288;28;20043;-77
2021/01/07 10:27:40;;;;;;;11.87;4.87;;;6.90;99.90;;;6.99;75.41;101292.97;5071450;28;20041;-77
2021/01/07 10:30:13;;;;;;;15.93;5.90;;;6.90;99.90;;;7.10;75.23;101285.28;5071659;28;20048;-77
2021/01/07 10:32:40;;;;;;;13.70;5.50;;;7.00;99.90;;;6.96;74.74;101261.41;5071936;28;20047;-77
2021/01/07 10:35:10;;;;;;;11.93;6.00;;;7.10;99.90;;;7.12;74.64;101278.31;5071717;28;20494;-77